createdAt,value
2023-01-31T00:00:52.231Z,96669.28
2023-01-31T00:05:53.769Z,96664.56
2023-01-31T00:10:59.135Z,96663.06
2023-01-31T00:16:01.438Z,96666.44
2023-01-31T00:21:17.267Z,96668.28
2023-01-31T00:26:24.935Z,96664.84
2023-01-31T00:31:28.241Z,96665.03
2023-01-31T00:36:32.356Z,96654.22
2023-01-31T00:41:36.517Z,96665.69
2023-01-31T00:46:39.390Z,96667.31
2023-01-31T00:51:41.006Z,96661.47
2023-01-31T00:56:42.536Z,96658.84
2023-01-31T01:01:44.065Z,96661.91
2023-01-31T01:06:46.825Z,96655.63
2023-01-31T01:11:48.809Z,96656.56
2023-01-31T01:16:50.351Z,96661.84
2023-01-31T01:21:54.204Z,96654.53
2023-01-31T01:26:55.925Z,96654.59
2023-01-31T01:31:59.850Z,96649.25
2023-01-31T01:37:01.437Z,96645.91
2023-01-31T01:42:03.052Z,96649.47
2023-01-31T01:47:04.714Z,96655.16
2023-01-31T01:52:11.417Z,96655.47
2023-01-31T01:57:20.856Z,96656.53
2023-01-31T02:02:26.299Z,96655.66
2023-01-31T02:07:28.014Z,96659.72
2023-01-31T02:12:32.033Z,96652.91
2023-01-31T02:17:33.832Z,96651.75
2023-01-31T02:23:09.764Z,96658.53
2023-01-31T02:28:20.412Z,96655.81
2023-01-31T02:33:36.902Z,96644.63
2023-01-31T02:38:55.733Z,96658.25
2023-01-31T02:44:14.454Z,96660.84
2023-01-31T02:49:27.166Z,96661.69
2023-01-31T02:54:31.500Z,96663.00
2023-01-31T02:59:34.590Z,96666.06
2023-01-31T03:04:36.631Z,96660.06
2023-01-31T03:10:00.112Z,96660.31
2023-01-31T03:15:26.591Z,96664.00
2023-01-31T03:20:43.042Z,96661.91
2023-01-31T03:25:46.477Z,96657.78
2023-01-31T03:30:52.572Z,96675.25
2023-01-31T03:36:14.138Z,96674.31
2023-01-31T03:41:29.998Z,96678.22
2023-01-31T03:46:38.453Z,96688.19
2023-01-31T03:51:46.336Z,96692.25
2023-01-31T03:56:55.133Z,96689.84
2023-01-31T04:02:00.806Z,96692.88
2023-01-31T04:07:03.996Z,96703.81
2023-01-31T04:12:06.886Z,96711.69
2023-01-31T04:17:08.432Z,96712.59
2023-01-31T04:22:10.545Z,96700.41
2023-01-31T04:27:12.365Z,96707.63
2023-01-31T04:32:13.979Z,96710.44
2023-01-31T04:37:15.551Z,96724.25
2023-01-31T04:42:17.072Z,96730.28
2023-01-31T04:47:18.823Z,96729.44
2023-01-31T04:52:20.291Z,96720.88
2023-01-31T04:57:21.784Z,96734.44
2023-01-31T05:02:23.388Z,96736.91
2023-01-31T05:07:24.910Z,96729.28
2023-01-31T05:12:26.512Z,96727.97
2023-01-31T05:17:28.013Z,96728.44
2023-01-31T05:22:29.597Z,96732.81
2023-01-31T05:27:31.504Z,96739.44
2023-01-31T05:32:33.320Z,96741.56
2023-01-31T05:37:34.860Z,96741.03
2023-01-31T05:42:36.471Z,96751.78
2023-01-31T05:47:38.047Z,96748.63
2023-01-31T05:52:39.867Z,96750.09
2023-01-31T05:57:41.351Z,96759.00
2023-01-31T06:02:43.146Z,96756.25
2023-01-31T06:07:44.794Z,96764.63
2023-01-31T06:12:46.366Z,96753.56
2023-01-31T06:17:48.074Z,96760.13
2023-01-31T06:22:49.698Z,96759.09
2023-01-31T06:27:51.311Z,96766.72
2023-01-31T06:32:52.916Z,96761.44
2023-01-31T06:37:58.105Z,96765.94
2023-01-31T06:43:00.117Z,96764.88
2023-01-31T06:48:02.067Z,96765.63
2023-01-31T06:53:04.071Z,96771.34
2023-01-31T06:58:05.722Z,96773.63
2023-01-31T07:03:07.227Z,96776.09
2023-01-31T07:08:08.795Z,96781.88
2023-01-31T07:13:10.399Z,96776.84
2023-01-31T07:18:12.301Z,96775.91
2023-01-31T07:23:14.000Z,96774.66
2023-01-31T07:28:15.659Z,96773.41
2023-01-31T07:33:17.238Z,96788.59
2023-01-31T07:38:18.765Z,96793.56
2023-01-31T07:43:20.341Z,96797.91
2023-01-31T07:48:21.963Z,96791.81
2023-01-31T07:53:23.579Z,96787.72
2023-01-31T07:58:25.252Z,96793.81
2023-01-31T08:03:29.608Z,96785.41
2023-01-31T08:08:31.284Z,96781.38
2023-01-31T08:13:36.799Z,96774.47
2023-01-31T08:18:38.909Z,96788.88
2023-01-31T08:23:40.874Z,96786.19
2023-01-31T08:28:43.904Z,96790.22
2023-01-31T08:33:45.647Z,96782.75
2023-01-31T08:38:47.942Z,96783.53
2023-01-31T08:43:58.257Z,96783.53
2023-01-31T08:49:05.940Z,96790.06
2023-01-31T08:54:07.589Z,96777.34
2023-01-31T08:59:10.898Z,96762.16
2023-01-31T09:04:12.692Z,96770.28
2023-01-31T09:09:14.390Z,96768.53
2023-01-31T09:14:16.088Z,96760.88
2023-01-31T09:19:17.731Z,96765.38
2023-01-31T09:24:19.457Z,96765.31
2023-01-31T09:29:21.147Z,96758.59
2023-01-31T09:34:22.912Z,96757.75
2023-01-31T09:39:25.262Z,96747.72
2023-01-31T09:44:33.923Z,96748.69
2023-01-31T09:49:50.043Z,96753.34
2023-01-31T09:54:51.836Z,96752.38
2023-01-31T10:00:06.315Z,96760.91
2023-01-31T10:05:26.401Z,96750.91
2023-01-31T10:10:39.024Z,96756.78
2023-01-31T10:15:53.096Z,96753.00
2023-01-31T10:21:27.559Z,96753.22
2023-01-31T10:26:33.354Z,96748.25
2023-01-31T10:32:00.968Z,96742.34
2023-01-31T10:37:11.372Z,96727.03
2023-01-31T10:42:32.550Z,96713.44
2023-01-31T10:47:35.729Z,96710.50
2023-01-31T10:53:06.389Z,96696.81
2023-01-31T10:58:19.073Z,96699.97
2023-01-31T11:03:20.990Z,96691.31
2023-01-31T11:08:40.096Z,96692.88
2023-01-31T11:13:54.474Z,96685.81
2023-01-31T11:18:58.328Z,96684.91
2023-01-31T11:24:06.430Z,96673.13
2023-01-31T11:29:17.497Z,96665.56
2023-01-31T11:34:25.630Z,96651.19
2023-01-31T11:39:29.424Z,96663.56
2023-01-31T11:44:31.208Z,96642.50
2023-01-31T11:49:42.871Z,96646.88
2023-01-31T11:54:50.130Z,96644.00
2023-01-31T11:59:55.353Z,96628.06
2023-01-31T12:04:57.238Z,96625.53
2023-01-31T12:09:58.880Z,96604.50
2023-01-31T12:15:04.825Z,96607.44
2023-01-31T12:20:28.048Z,96612.75
2023-01-31T12:25:54.676Z,96609.47
2023-01-31T12:31:02.360Z,96600.66
2023-01-31T12:36:21.246Z,96615.88
2023-01-31T12:42:11.326Z,96641.41
2023-01-31T12:47:24.849Z,96614.19
2023-01-31T12:52:35.802Z,96609.66
2023-01-31T12:58:16.169Z,96629.41
2023-01-31T13:03:33.607Z,96606.34
2023-01-31T13:08:41.279Z,96613.41
2023-01-31T13:13:53.686Z,96596.31
2023-01-31T13:19:02.211Z,96602.72
2023-01-31T13:24:19.328Z,96620.38
2023-01-31T13:29:27.919Z,96607.50
2023-01-31T13:34:40.189Z,96600.44
2023-01-31T13:39:46.172Z,96595.09
2023-01-31T13:44:48.641Z,96601.09
2023-01-31T13:50:15.470Z,96592.75
2023-01-31T13:55:39.833Z,96593.28
2023-01-31T14:00:48.697Z,96602.78
2023-01-31T14:06:01.729Z,96612.00
2023-01-31T14:11:30.004Z,96607.06
2023-01-31T14:16:32.304Z,96602.75
2023-01-31T14:21:37.140Z,96617.75
2023-01-31T14:26:41.869Z,96616.53
2023-01-31T14:31:45.453Z,96609.47
2023-01-31T14:37:08.447Z,96628.16
2023-01-31T14:42:22.244Z,96596.38
2023-01-31T14:47:53.217Z,96572.69
2023-01-31T14:53:29.851Z,96554.34
2023-01-31T14:58:33.496Z,96572.59
2023-01-31T15:03:39.175Z,96572.91
2023-01-31T15:08:47.716Z,96570.78
2023-01-31T15:13:52.964Z,96574.47
2023-01-31T15:19:12.866Z,96562.56
2023-01-31T15:24:26.116Z,96554.44
2023-01-31T15:29:34.429Z,96558.16
2023-01-31T15:34:50.131Z,96556.03
2023-01-31T15:39:57.228Z,96555.13
2023-01-31T15:45:17.235Z,96555.94
2023-01-31T15:50:20.543Z,96574.88
2023-01-31T15:55:22.701Z,96596.66
2023-01-31T16:00:28.974Z,96612.56
2023-01-31T16:05:36.801Z,96592.03
2023-01-31T16:10:38.883Z,96594.03
2023-01-31T16:15:41.333Z,96598.47
2023-01-31T16:20:47.535Z,96618.59
2023-01-31T16:25:55.618Z,96630.63
2023-01-31T16:31:06.543Z,96614.34
2023-01-31T16:36:17.373Z,96610.97
2023-01-31T16:41:52.932Z,96601.50
2023-01-31T16:46:55.112Z,96606.00
2023-01-31T16:52:24.497Z,96608.34
2023-01-31T16:57:29.363Z,96606.22
2023-01-31T17:02:34.350Z,96589.28
2023-01-31T17:07:37.217Z,96593.59
2023-01-31T17:12:39.468Z,96601.19
2023-01-31T17:17:41.384Z,96612.25
2023-01-31T17:22:50.468Z,96601.44
2023-01-31T17:27:55.331Z,96617.44
2023-01-31T17:32:58.538Z,96621.00
2023-01-31T17:38:00.884Z,96632.66
2023-01-31T17:43:04.750Z,96636.59
2023-01-31T17:48:07.764Z,96633.84
2023-01-31T17:53:14.755Z,96629.69
2023-01-31T17:58:18.025Z,96628.13
2023-01-31T18:03:22.693Z,96649.22
2023-01-31T18:08:24.442Z,96654.81
2023-01-31T18:13:26.238Z,96642.91
2023-01-31T18:18:28.165Z,96648.75
2023-01-31T18:23:30.218Z,96644.22
2023-01-31T18:28:32.193Z,96635.88
2023-01-31T18:33:34.084Z,96663.56
2023-01-31T18:38:35.973Z,96660.50
2023-01-31T18:43:37.812Z,96674.09
2023-01-31T18:48:41.153Z,96679.59
2023-01-31T18:53:45.462Z,96683.56
2023-01-31T18:58:48.813Z,96695.22
2023-01-31T19:03:52.220Z,96685.50
2023-01-31T19:08:56.252Z,96688.56
2023-01-31T19:14:00.834Z,96691.94
2023-01-31T19:19:02.959Z,96697.41
2023-01-31T19:24:07.626Z,96692.31
2023-01-31T19:29:13.710Z,96710.22
2023-01-31T19:34:15.603Z,96695.88
2023-01-31T19:39:17.484Z,96721.53
2023-01-31T19:44:19.365Z,96728.47
2023-01-31T19:49:22.019Z,96724.38
2023-01-31T19:54:23.936Z,96711.22
2023-01-31T19:59:25.663Z,96693.66
2023-01-31T20:04:27.695Z,96692.16
2023-01-31T20:09:29.429Z,96691.47
2023-01-31T20:14:31.383Z,96687.31
2023-01-31T20:19:33.400Z,96691.59
2023-01-31T20:24:36.527Z,96694.22
2023-01-31T20:29:38.440Z,96690.31
2023-01-31T20:34:40.525Z,96690.53
2023-01-31T20:39:43.358Z,96679.03
2023-01-31T20:44:45.093Z,96679.88
2023-01-31T20:49:46.838Z,96675.63
2023-01-31T20:54:48.857Z,96681.28
2023-01-31T20:59:50.776Z,96696.03
2023-01-31T21:04:52.631Z,96693.22
2023-01-31T21:09:54.570Z,96693.44
2023-01-31T21:14:56.473Z,96696.00
2023-01-31T21:19:58.836Z,96680.69
2023-01-31T21:25:00.687Z,96671.84
2023-01-31T21:30:02.914Z,96666.59
2023-01-31T21:35:05.074Z,96668.63
2023-01-31T21:40:08.660Z,96647.44
2023-01-31T21:45:11.052Z,96646.72
2023-01-31T21:50:13.024Z,96637.16
2023-01-31T21:55:16.376Z,96632.81
2023-01-31T22:00:19.270Z,96617.69
2023-01-31T22:05:23.477Z,96627.72
2023-01-31T22:10:25.444Z,96630.66
2023-01-31T22:15:27.353Z,96634.72
2023-01-31T22:20:29.355Z,96645.22
2023-01-31T22:25:36.037Z,96632.91
2023-01-31T22:30:38.050Z,96622.13
2023-01-31T22:35:39.815Z,96609.97
2023-01-31T22:40:45.919Z,96611.88
2023-01-31T22:45:49.631Z,96602.59
2023-01-31T22:50:56.769Z,96603.81
2023-01-31T22:56:07.012Z,96614.31
2023-01-31T23:01:30.399Z,96596.34
2023-01-31T23:06:33.132Z,96596.66
2023-01-31T23:11:35.063Z,96583.75
2023-01-31T23:16:39.062Z,96567.38
2023-01-31T23:21:42.069Z,96565.81
2023-01-31T23:26:44.109Z,96570.41
2023-01-31T23:31:46.258Z,96567.94
2023-01-31T23:36:48.440Z,96561.84
2023-01-31T23:41:50.314Z,96569.09
2023-01-31T23:46:52.306Z,96555.16
2023-01-31T23:51:54.385Z,96546.88
2023-01-31T23:56:56.431Z,96534.13
